sensor_id;sensor_type;location;lat;lon;timestamp;pressure;altitude;pressure_sealevel;temperature;humidity
18765;BME280;9511;54.242;12.448;2023-04-27T03:05:26;101605.47;;;3.72;88.94
18765;BME280;9511;54.242;12.448;2023-04-27T03:07:54;101605.19;;;3.68;89.14
18765;BME280;9511;54.242;12.448;2023-04-27T03:10:22;101599.63;;;3.63;89.27
18765;BME280;9511;54.242;12.448;2023-04-27T03:12:49;101604.28;;;3.67;89.73
18765;BME280;9511;54.242;12.448;2023-04-27T03:15:16;101606.78;;;3.66;89.90
18765;BME280;9511;54.242;12.448;2023-04-27T03:17:44;101605.78;;;3.64;90.26
18765;BME280;9511;54.242;12.448;2023-04-27T03:20:12;101602.25;;;3.63;89.95
18765;BME280;9511;54.242;12.448;2023-04-27T03:22:41;101611.91;;;3.64;90.26
18765;BME280;9511;54.242;12.448;2023-04-27T03:25:10;101611.00;;;3.64;90.88
18765;BME280;9511;54.242;12.448;2023-04-27T03:27:38;101617.06;;;3.63;90.66
18765;BME280;9511;54.242;12.448;2023-04-27T03:30:06;101612.81;;;3.65;90.88
18765;BME280;9511;54.242;12.448;2023-04-27T03:32:34;101620.75;;;3.66;91.13
18765;BME280;9511;54.242;12.448;2023-04-27T03:35:02;101617.13;;;3.64;91.64
18765;BME280;9511;54.242;12.448;2023-04-27T03:37:29;101621.97;;;3.71;91.57
18765;BME280;9511;54.242;12.448;2023-04-27T03:39:59;101614.53;;;3.64;91.53
18765;BME280;9511;54.242;12.448;2023-04-27T03:42:26;101626.69;;;3.64;91.85
18765;BME280;9511;54.242;12.448;2023-04-27T03:44:54;101620.25;;;3.59;92.09
18765;BME280;9511;54.242;12.448;2023-04-27T03:47:22;101619.66;;;3.63;92.23
18765;BME280;9511;54.242;12.448;2023-04-27T03:49:50;101629.81;;;3.58;92.07
18765;BME280;9511;54.242;12.448;2023-04-27T03:52:17;101619.94;;;3.54;92.48
18765;BME280;9511;54.242;12.448;2023-04-27T03:54:44;101629.41;;;3.52;92.65
18765;BME280;9511;54.242;12.448;2023-04-27T03:57:13;101628.81;;;3.56;92.43
18765;BME280;9511;54.242;12.448;2023-04-27T03:59:41;101625.66;;;3.49;92.75
18765;BME280;9511;54.242;12.448;2023-04-27T04:02:08;101632.50;;;3.46;92.99
18765;BME280;9511;54.242;12.448;2023-04-27T04:04:36;101632.50;;;3.46;92.94
18765;BME280;9511;54.242;12.448;2023-04-27T04:07:04;101638.88;;;3.50;93.44
18765;BME280;9511;54.242;12.448;2023-04-27T04:09:31;101641.59;;;3.52;93.69
18765;BME280;9511;54.242;12.448;2023-04-27T04:11:58;101642.00;;;3.58;94.00
18765;BME280;9511;54.242;12.448;2023-04-27T04:14:28;101646.41;;;3.59;93.97
18765;BME280;9511;54.242;12.448;2023-04-27T04:16:56;101640.38;;;3.60;93.73
18765;BME280;9511;54.242;12.448;2023-04-27T04:19:23;101646.63;;;3.62;93.70
18765;BME280;9511;54.242;12.448;2023-04-27T04:21:50;101648.78;;;3.42;93.57
18765;BME280;9511;54.242;12.448;2023-04-27T04:24:19;101644.59;;;3.19;93.70
18765;BME280;9511;54.242;12.448;2023-04-27T04:26:47;101653.41;;;3.08;93.72
18765;BME280;9511;54.242;12.448;2023-04-27T04:29:14;101654.19;;;2.94;93.75
18765;BME280;9511;54.242;12.448;2023-04-27T04:31:43;101650.00;;;2.84;94.13
18765;BME280;9511;54.242;12.448;2023-04-27T04:34:10;101650.59;;;2.80;94.61
18765;BME280;9511;54.242;12.448;2023-04-27T04:36:37;101664.25;;;2.76;94.94
18765;BME280;9511;54.242;12.448;2023-04-27T04:39:05;101659.59;;;2.72;95.05
18765;BME280;9511;54.242;12.448;2023-04-27T04:41:33;101665.66;;;2.59;95.26
18765;BME280;9511;54.242;12.448;2023-04-27T04:44:00;101669.09;;;2.58;95.89
18765;BME280;9511;54.242;12.448;2023-04-27T04:46:28;101665.66;;;2.59;95.93
18765;BME280;9511;54.242;12.448;2023-04-27T04:48:57;101673.59;;;2.61;96.23
18765;BME280;9511;54.242;12.448;2023-04-27T04:51:24;101670.19;;;2.62;96.32
18765;BME280;9511;54.242;12.448;2023-04-27T04:53:52;101675.66;;;2.65;96.45
18765;BME280;9511;54.242;12.448;2023-04-27T04:56:19;101676.97;;;2.72;96.31
18765;BME280;9511;54.242;12.448;2023-04-27T04:58:47;101681.75;;;2.77;96.43
18765;BME280;9511;54.242;12.448;2023-04-27T05:01:14;101679.75;;;2.86;96.43
18765;BME280;9511;54.242;12.448;2023-04-27T05:03:42;101672.56;;;2.96;96.13
18765;BME280;9511;54.242;12.448;2023-04-27T05:06:11;101675.84;;;3.05;96.02
18765;BME280;9511;54.242;12.448;2023-04-27T05:08:38;101678.00;;;3.24;95.62
18765;BME280;9511;54.242;12.448;2023-04-27T05:11:05;101679.59;;;3.46;95.55
18765;BME280;9511;54.242;12.448;2023-04-27T05:13:32;101682.88;;;3.69;94.94
18765;BME280;9511;54.242;12.448;2023-04-27T05:16:03;101669.88;;;3.84;94.61
18765;BME280;9511;54.242;12.448;2023-04-27T05:18:30;101670.50;;;4.06;93.68
18765;BME280;9511;54.242;12.448;2023-04-27T05:20:57;101675.34;;;4.26;92.32
18765;BME280;9511;54.242;12.448;2023-04-27T05:23:26;101673.28;;;4.36;91.73
18765;BME280;9511;54.242;12.448;2023-04-27T05:25:53;101664.91;;;4.41;91.14
18765;BME280;9511;54.242;12.448;2023-04-27T05:28:21;101672.78;;;4.41;89.95
18765;BME280;9511;54.242;12.448;2023-04-27T05:30:48;101666.53;;;4.39;89.73
18765;BME280;9511;54.242;12.448;2023-04-27T05:33:15;101672.91;;;4.43;89.14
18765;BME280;9511;54.242;12.448;2023-04-27T05:35:42;101683.38;;;4.43;89.30
18765;BME280;9511;54.242;12.448;2023-04-27T05:38:10;101681.75;;;4.45;89.26
18765;BME280;9511;54.242;12.448;2023-04-27T05:40:41;101678.19;;;4.58;89.35
18765;BME280;9511;54.242;12.448;2023-04-27T05:43:09;101682.78;;;4.75;89.03
18765;BME280;9511;54.242;12.448;2023-04-27T05:45:38;101688.72;;;5.14;88.29
18765;BME280;9511;54.242;12.448;2023-04-27T05:48:06;101678.47;;;5.46;87.00
18765;BME280;9511;54.242;12.448;2023-04-27T05:50:33;101681.56;;;5.69;85.97
18765;BME280;9511;54.242;12.448;2023-04-27T05:53:00;101677.03;;;5.81;84.43
18765;BME280;9511;54.242;12.448;2023-04-27T05:55:30;101671.50;;;6.21;83.60
18765;BME280;9511;54.242;12.448;2023-04-27T05:57:59;101693.34;;;6.20;82.13
18765;BME280;9511;54.242;12.448;2023-04-27T06:00:28;101676.75;;;6.21;81.78
18765;BME280;9511;54.242;12.448;2023-04-27T06:02:56;101693.59;;;6.24;80.89
18765;BME280;9511;54.242;12.448;2023-04-27T06:05:24;101671.38;;;6.34;79.92
18765;BME280;9511;54.242;12.448;2023-04-27T06:07:52;101683.19;;;6.57;79.79
18765;BME280;9511;54.242;12.448;2023-04-27T06:10:19;101680.63;;;6.58;79.10
18765;BME280;9511;54.242;12.448;2023-04-27T06:12:46;101688.13;;;6.67;79.10
18765;BME280;9511;54.242;12.448;2023-04-27T06:15:15;101679.69;;;6.73;77.94
18765;BME280;9511;54.242;12.448;2023-04-27T06:17:42;101683.84;;;7.00;78.04
18765;BME280;9511;54.242;12.448;2023-04-27T06:20:11;101690.50;;;6.62;76.74
18765;BME280;9511;54.242;12.448;2023-04-27T06:22:38;101689.97;;;6.53;76.92
18765;BME280;9511;54.242;12.448;2023-04-27T06:25:06;101692.94;;;6.43;76.85
18765;BME280;9511;54.242;12.448;2023-04-27T06:27:34;101695.78;;;6.31;78.04
18765;BME280;9511;54.242;12.448;2023-04-27T06:30:01;101696.75;;;6.19;78.24
18765;BME280;9511;54.242;12.448;2023-04-27T06:32:33;101691.81;;;6.08;78.93
18765;BME280;9511;54.242;12.448;2023-04-27T06:35:00;101700.06;;;6.15;78.59
18765;BME280;9511;54.242;12.448;2023-04-27T06:37:27;101691.16;;;6.27;77.92
18765;BME280;9511;54.242;12.448;2023-04-27T06:39:55;101690.03;;;6.38;77.51
18765;BME280;9511;54.242;12.448;2023-04-27T06:42:22;101698.59;;;6.20;77.03
18765;BME280;9511;54.242;12.448;2023-04-27T06:44:52;101694.88;;;6.31;76.29
18765;BME280;9511;54.242;12.448;2023-04-27T06:47:19;101708.00;;;6.31;76.15
18765;BME280;9511;54.242;12.448;2023-04-27T06:49:48;101695.22;;;6.22;75.75
18765;BME280;9511;54.242;12.448;2023-04-27T06:52:16;101706.00;;;6.27;75.59
18765;BME280;9511;54.242;12.448;2023-04-27T06:54:43;101712.25;;;6.29;75.17
18765;BME280;9511;54.242;12.448;2023-04-27T06:57:11;101701.75;;;6.29;74.99
18765;BME280;9511;54.242;12.448;2023-04-27T06:59:38;101707.81;;;6.28;75.19
18765;BME280;9511;54.242;12.448;2023-04-27T07:02:06;101698.69;;;6.52;74.76
18765;BME280;9511;54.242;12.448;2023-04-27T07:04:34;101708.34;;;6.37;74.61
18765;BME280;9511;54.242;12.448;2023-04-27T07:07:04;101710.53;;;6.29;74.34
18765;BME280;9511;54.242;12.448;2023-04-27T07:09:32;101706.50;;;6.36;74.92
18765;BME280;9511;54.242;12.448;2023-04-27T07:11:59;101707.59;;;6.54;74.96
18765;BME280;9511;54.242;12.448;2023-04-27T07:14:28;101711.31;;;6.74;74.92
18765;BME280;9511;54.242;12.448;2023-04-27T07:16:55;101705.53;;;6.96;74.51
18765;BME280;9511;54.242;12.448;2023-04-27T07:19:23;101713.78;;;6.87;73.68
18765;BME280;9511;54.242;12.448;2023-04-27T07:21:50;101728.63;;;6.71;73.98
18765;BME280;9511;54.242;12.448;2023-04-27T07:24:19;101712.22;;;6.75;74.45
18765;BME280;9511;54.242;12.448;2023-04-27T07:26:46;101705.03;;;7.03;73.41
18765;BME280;9511;54.242;12.448;2023-04-27T07:29:14;101718.25;;;7.21;73.25
18765;BME280;9511;54.242;12.448;2023-04-27T07:31:42;101723.03;;;7.28;72.59
18765;BME280;9511;54.242;12.448;2023-04-27T07:34:10;101716.38;;;7.02;72.58
18765;BME280;9511;54.242;12.448;2023-04-27T07:36:37;101737.22;;;6.83;73.04
18765;BME280;9511;54.242;12.448;2023-04-27T07:39:05;101728.41;;;6.66;73.24
18765;BME280;9511;54.242;12.448;2023-04-27T07:41:34;101734.69;;;6.84;72.75
18765;BME280;9511;54.242;12.448;2023-04-27T07:44:01;101721.78;;;7.05;72.31
18765;BME280;9511;54.242;12.448;2023-04-27T07:46:29;101734.38;;;7.11;71.34
18765;BME280;9511;54.242;12.448;2023-04-27T07:48:56;101724.94;;;7.14;71.02
18765;BME280;9511;54.242;12.448;2023-04-27T07:51:25;101730.34;;;7.01;71.13
18765;BME280;9511;54.242;12.448;2023-04-27T07:53:53;101729.03;;;7.42;71.56
18765;BME280;9511;54.242;12.448;2023-04-27T07:56:21;101730.19;;;7.14;70.82
18765;BME280;9511;54.242;12.448;2023-04-27T07:58:50;101739.91;;;7.32;71.03
18765;BME280;9511;54.242;12.448;2023-04-27T08:01:17;101736.63;;;7.36;69.45
18765;BME280;9511;54.242;12.448;2023-04-27T08:03:44;101738.09;;;7.14;69.04
18765;BME280;9511;54.242;12.448;2023-04-27T08:06:11;101739.28;;;7.05;69.28
18765;BME280;9511;54.242;12.448;2023-04-27T08:08:39;101735.16;;;7.41;69.44
18765;BME280;9511;54.242;12.448;2023-04-27T08:11:08;101741.88;;;7.36;68.06
18765;BME280;9511;54.242;12.448;2023-04-27T08:13:35;101734.13;;;7.39;67.99
18765;BME280;9511;54.242;12.448;2023-04-27T08:16:05;101749.47;;;7.46;68.39
18765;BME280;9511;54.242;12.448;2023-04-27T08:18:32;101744.16;;;7.62;66.70
18765;BME280;9511;54.242;12.448;2023-04-27T08:21:00;101742.19;;;7.75;66.19
18765;BME280;9511;54.242;12.448;2023-04-27T08:23:28;101733.31;;;7.56;66.65
18765;BME280;9511;54.242;12.448;2023-04-27T08:25:56;101737.19;;;7.47;68.02
18765;BME280;9511;54.242;12.448;2023-04-27T08:28:23;101756.47;;;7.80;68.86
18765;BME280;9511;54.242;12.448;2023-04-27T08:30:50;101737.84;;;7.59;67.54
18765;BME280;9511;54.242;12.448;2023-04-27T08:33:19;101744.50;;;7.52;67.65
18765;BME280;9511;54.242;12.448;2023-04-27T08:35:46;101743.00;;;7.73;68.33
18765;BME280;9511;54.242;12.448;2023-04-27T08:38:14;101750.88;;;7.73;67.43
18765;BME280;9511;54.242;12.448;2023-04-27T08:40:42;101743.75;;;7.55;68.39
18765;BME280;9511;54.242;12.448;2023-04-27T08:43:09;101754.53;;;7.76;68.68
18765;BME280;9511;54.242;12.448;2023-04-27T08:45:38;101750.50;;;7.66;68.33
18765;BME280;9511;54.242;12.448;2023-04-27T08:48:11;101752.41;;;7.52;68.28
18765;BME280;9511;54.242;12.448;2023-04-27T08:50:43;101753.88;;;7.63;67.76
18765;BME280;9511;54.242;12.448;2023-04-27T08:53:17;101746.31;;;7.69;67.03
18765;BME280;9511;54.242;12.448;2023-04-27T08:55:44;101754.53;;;7.59;66.31
18765;BME280;9511;54.242;12.448;2023-04-27T08:58:11;101749.72;;;7.85;66.93
18765;BME280;9511;54.242;12.448;2023-04-27T09:00:41;101746.34;;;7.87;67.04
18765;BME280;9511;54.242;12.448;2023-04-27T09:03:17;101744.44;;;8.19;66.14
18765;BME280;9511;54.242;12.448;2023-04-27T09:05:48;101748.66;;;8.67;65.79
18765;BME280;9511;54.242;12.448;2023-04-27T09:08:15;101749.41;;;8.47;64.59
18765;BME280;9511;54.242;12.448;2023-04-27T09:10:44;101766.53;;;8.21;65.22
18765;BME280;9511;54.242;12.448;2023-04-27T09:13:11;101753.38;;;7.38;66.28
18765;BME280;9511;54.242;12.448;2023-04-27T09:15:43;101760.38;;;7.37;66.78
18765;BME280;9511;54.242;12.448;2023-04-27T09:18:14;101749.94;;;7.55;67.02
18765;BME280;9511;54.242;12.448;2023-04-27T09:20:43;101763.94;;;8.05;66.59
18765;BME280;9511;54.242;12.448;2023-04-27T09:23:24;101749.69;;;8.53;64.88
18765;BME280;9511;54.242;12.448;2023-04-27T09:25:53;101769.34;;;8.08;64.66
18765;BME280;9511;54.242;12.448;2023-04-27T09:28:21;101752.88;;;8.46;64.42
18765;BME280;9511;54.242;12.448;2023-04-27T09:30:52;101757.31;;;8.47;64.29
18765;BME280;9511;54.242;12.448;2023-04-27T09:33:25;101762.84;;;8.01;64.24
18765;BME280;9511;54.242;12.448;2023-04-27T09:35:53;101765.41;;;8.34;63.52
18765;BME280;9511;54.242;12.448;2023-04-27T09:38:22;101748.91;;;8.91;63.16
18765;BME280;9511;54.242;12.448;2023-04-27T09:40:51;101744.63;;;8.75;62.00
18765;BME280;9511;54.242;12.448;2023-04-27T09:43:19;101753.38;;;9.12;59.87
18765;BME280;9511;54.242;12.448;2023-04-27T09:45:47;101741.88;;;9.48;58.59
18765;BME280;9511;54.242;12.448;2023-04-27T09:48:15;101745.91;;;9.40;56.83
18765;BME280;9511;54.242;12.448;2023-04-27T09:50:44;101741.13;;;9.12;57.60
18765;BME280;9511;54.242;12.448;2023-04-27T09:53:14;101743.75;;;8.94;58.01
18765;BME280;9511;54.242;12.448;2023-04-27T09:55:47;101745.56;;;9.13;58.34
18765;BME280;9511;54.242;12.448;2023-04-27T09:58:29;101740.63;;;9.40;58.79
18765;BME280;9511;54.242;12.448;2023-04-27T10:01:07;101737.41;;;10.07;58.24
18765;BME280;9511;54.242;12.448;2023-04-27T10:03:47;101740.13;;;9.88;58.63
18765;BME280;9511;54.242;12.448;2023-04-27T10:06:44;101740.38;;;9.94;58.80
18765;BME280;9511;54.242;12.448;2023-04-27T10:09:19;101760.09;;;10.02;58.63
18765;BME280;9511;54.242;12.448;2023-04-27T10:11:52;101733.06;;;9.48;58.65
18765;BME280;9511;54.242;12.448;2023-04-27T10:14:21;101752.66;;;9.53;59.26
18765;BME280;9511;54.242;12.448;2023-04-27T10:16:51;101736.69;;;9.69;59.10
18765;BME280;9511;54.242;12.448;2023-04-27T10:19:19;101764.13;;;9.53;59.06
18765;BME280;9511;54.242;12.448;2023-04-27T10:21:51;101743.59;;;9.87;58.20
18765;BME280;9511;54.242;12.448;2023-04-27T10:24:30;101748.09;;;9.89;57.79
18765;BME280;9511;54.242;12.448;2023-04-27T10:27:04;101737.16;;;10.01;57.97
18765;BME280;9511;54.242;12.448;2023-04-27T10:29:38;101739.44;;;9.72;58.74
18765;BME280;9511;54.242;12.448;2023-04-27T10:32:08;101738.69;;;10.36;58.05
18765;BME280;9511;54.242;12.448;2023-04-27T10:34:37;101739.72;;;10.20;57.37
18765;BME280;9511;54.242;12.448;2023-04-27T10:37:05;101738.31;;;11.15;55.89
18765;BME280;9511;54.242;12.448;2023-04-27T10:39:38;101730.94;;;10.41;55.94
18765;BME280;9511;54.242;12.448;2023-04-27T10:42:07;101716.66;;;10.58;55.73
18765;BME280;9511;54.242;12.448;2023-04-27T10:44:36;101737.47;;;10.71;55.21
18765;BME280;9511;54.242;12.448;2023-04-27T10:47:14;101747.25;;;10.30;54.69
18765;BME280;9511;54.242;12.448;2023-04-27T10:49:43;101749.06;;;10.31;55.51
18765;BME280;9511;54.242;12.448;2023-04-27T10:52:10;101740.56;;;10.19;55.73
18765;BME280;9511;54.242;12.448;2023-04-27T10:54:43;101741.16;;;10.12;55.34
18765;BME280;9511;54.242;12.448;2023-04-27T10:57:12;101748.31;;;9.94;55.08
18765;BME280;9511;54.242;12.448;2023-04-27T10:59:47;101747.91;;;10.25;55.46
18765;BME280;9511;54.242;12.448;2023-04-27T11:02:15;101748.59;;;10.62;52.98
18765;BME280;9511;54.242;12.448;2023-04-27T11:04:43;101751.78;;;11.21;51.59
18765;BME280;9511;54.242;12.448;2023-04-27T11:07:22;101741.53;;;10.84;50.56
18765;BME280;9511;54.242;12.448;2023-04-27T11:09:50;101747.19;;;10.50;49.39
18765;BME280;9511;54.242;12.448;2023-04-27T11:12:20;101747.22;;;11.17;49.42
18765;BME280;9511;54.242;12.448;2023-04-27T11:14:48;101738.78;;;11.27;48.46
18765;BME280;9511;54.242;12.448;2023-04-27T11:17:15;101739.59;;;11.02;49.05
18765;BME280;9511;54.242;12.448;2023-04-27T11:19:46;101750.94;;;10.77;50.20
18765;BME280;9511;54.242;12.448;2023-04-27T11:22:14;101751.03;;;11.01;48.65
18765;BME280;9511;54.242;12.448;2023-04-27T11:24:47;101763.59;;;10.84;49.34
18765;BME280;9511;54.242;12.448;2023-04-27T11:27:15;101762.56;;;11.26;48.74
18765;BME280;9511;54.242;12.448;2023-04-27T11:29:44;101762.97;;;10.69;49.29
18765;BME280;9511;54.242;12.448;2023-04-27T11:32:17;101751.94;;;11.02;49.21
18765;BME280;9511;54.242;12.448;2023-04-27T11:34:49;101747.81;;;11.32;49.81
18765;BME280;9511;54.242;12.448;2023-04-27T11:37:20;101753.78;;;10.82;50.73
18765;BME280;9511;54.242;12.448;2023-04-27T11:39:51;101763.53;;;10.40;51.03
18765;BME280;9511;54.242;12.448;2023-04-27T11:42:20;101764.81;;;10.28;52.31
18765;BME280;9511;54.242;12.448;2023-04-27T11:44:52;101782.47;;;10.94;52.23
18765;BME280;9511;54.242;12.448;2023-04-27T11:47:20;101769.72;;;10.61;49.77
18765;BME280;9511;54.242;12.448;2023-04-27T11:49:48;101765.66;;;10.71;49.61
18765;BME280;9511;54.242;12.448;2023-04-27T11:52:16;101763.75;;;10.89;50.07
18765;BME280;9511;54.242;12.448;2023-04-27T11:54:48;101762.03;;;10.67;49.85
18765;BME280;9511;54.242;12.448;2023-04-27T11:57:16;101777.19;;;10.29;49.72
18765;BME280;9511;54.242;12.448;2023-04-27T11:59:43;101765.81;;;10.74;46.83
18765;BME280;9511;54.242;12.448;2023-04-27T12:02:12;101782.16;;;10.63;47.77
18765;BME280;9511;54.242;12.448;2023-04-27T12:04:40;101771.00;;;10.72;47.70
18765;BME280;9511;54.242;12.448;2023-04-27T12:07:07;101773.09;;;11.70;48.31
18765;BME280;9511;54.242;12.448;2023-04-27T12:09:35;101764.28;;;11.95;47.42
18765;BME280;9511;54.242;12.448;2023-04-27T12:12:02;101774.84;;;12.19;46.98
18765;BME280;9511;54.242;12.448;2023-04-27T12:14:30;101760.00;;;11.99;46.03
18765;BME280;9511;54.242;12.448;2023-04-27T12:16:58;101770.09;;;12.35;45.72
18765;BME280;9511;54.242;12.448;2023-04-27T12:19:27;101774.69;;;12.40;45.20
18765;BME280;9511;54.242;12.448;2023-04-27T12:21:56;101770.00;;;12.59;46.05
18765;BME280;9511;54.242;12.448;2023-04-27T12:24:24;101773.50;;;12.32;45.80
18765;BME280;9511;54.242;12.448;2023-04-27T12:26:51;101771.94;;;12.91;46.38
18765;BME280;9511;54.242;12.448;2023-04-27T12:29:18;101767.56;;;12.66;45.49
18765;BME280;9511;54.242;12.448;2023-04-27T12:31:47;101783.63;;;12.96;45.95
18765;BME280;9511;54.242;12.448;2023-04-27T12:34:20;101782.44;;;12.09;43.55
18765;BME280;9511;54.242;12.448;2023-04-27T12:36:49;101774.38;;;12.31;45.47
18765;BME280;9511;54.242;12.448;2023-04-27T12:39:18;101770.63;;;12.79;46.01
18765;BME280;9511;54.242;12.448;2023-04-27T12:41:47;101774.41;;;12.58;45.71
18765;BME280;9511;54.242;12.448;2023-04-27T12:44:15;101774.41;;;13.14;44.12
18765;BME280;9511;54.242;12.448;2023-04-27T12:46:44;101767.38;;;13.16;43.27
18765;BME280;9511;54.242;12.448;2023-04-27T12:49:13;101769.13;;;12.87;46.13
18765;BME280;9511;54.242;12.448;2023-04-27T12:51:40;101775.81;;;13.60;43.91
18765;BME280;9511;54.242;12.448;2023-04-27T12:54:09;101760.53;;;12.95;44.65
18765;BME280;9511;54.242;12.448;2023-04-27T12:56:38;101771.78;;;12.87;46.10
18765;BME280;9511;54.242;12.448;2023-04-27T12:59:06;101770.19;;;13.20;45.81
18765;BME280;9511;54.242;12.448;2023-04-27T13:01:34;101773.47;;;13.40;42.87
18765;BME280;9511;54.242;12.448;2023-04-27T13:04:02;101776.97;;;13.11;42.41
18765;BME280;9511;54.242;12.448;2023-04-27T13:06:30;101774.28;;;12.82;43.37
18765;BME280;9511;54.242;12.448;2023-04-27T13:08:58;101769.56;;;13.00;43.03
18765;BME280;9511;54.242;12.448;2023-04-27T13:11:27;101772.28;;;13.02;42.73
18765;BME280;9511;54.242;12.448;2023-04-27T13:13:54;101763.34;;;13.27;42.37
18765;BME280;9511;54.242;12.448;2023-04-27T13:16:22;101773.91;;;13.54;42.65
18765;BME280;9511;54.242;12.448;2023-04-27T13:18:50;101769.44;;;13.85;42.47
18765;BME280;9511;54.242;12.448;2023-04-27T13:21:18;101768.41;;;14.11;41.83
18765;BME280;9511;54.242;12.448;2023-04-27T13:23:45;101771.63;;;13.68;42.10
18765;BME280;9511;54.242;12.448;2023-04-27T13:26:13;101773.53;;;14.38;41.47
18765;BME280;9511;54.242;12.448;2023-04-27T13:28:42;101774.22;;;14.31;40.82
18765;BME280;9511;54.242;12.448;2023-04-27T13:31:09;101771.84;;;13.17;40.24
18765;BME280;9511;54.242;12.448;2023-04-27T13:33:38;101773.56;;;12.86;42.52
18765;BME280;9511;54.242;12.448;2023-04-27T13:36:07;101763.22;;;13.24;41.84
18765;BME280;9511;54.242;12.448;2023-04-27T13:38:34;101759.91;;;13.02;42.14
18765;BME280;9511;54.242;12.448;2023-04-27T13:41:01;101774.75;;;13.24;41.46
18765;BME280;9511;54.242;12.448;2023-04-27T13:43:29;101773.91;;;13.54;41.40
18765;BME280;9511;54.242;12.448;2023-04-27T13:45:58;101764.22;;;13.58;41.73
18765;BME280;9511;54.242;12.448;2023-04-27T13:48:26;101783.25;;;13.71;42.06
18765;BME280;9511;54.242;12.448;2023-04-27T13:50:54;101777.88;;;13.70;40.88
18765;BME280;9511;54.242;12.448;2023-04-27T13:53:21;101769.06;;;12.31;42.61
18765;BME280;9511;54.242;12.448;2023-04-27T13:55:50;101781.91;;;12.98;42.98
18765;BME280;9511;54.242;12.448;2023-04-27T13:58:18;101767.09;;;13.07;42.36
18765;BME280;9511;54.242;12.448;2023-04-27T14:00:45;101768.59;;;12.97;42.88
18765;BME280;9511;54.242;12.448;2023-04-27T14:03:15;101764.63;;;13.13;41.90
18765;BME280;9511;54.242;12.448;2023-04-27T14:05:43;101774.19;;;13.65;41.90
18765;BME280;9511;54.242;12.448;2023-04-27T14:08:10;101769.66;;;13.61;42.08
18765;BME280;9511;54.242;12.448;2023-04-27T14:10:37;101763.44;;;13.93;41.35
18765;BME280;9511;54.242;12.448;2023-04-27T14:13:05;101762.72;;;13.99;41.24
18765;BME280;9511;54.242;12.448;2023-04-27T14:15:32;101751.13;;;13.95;41.37
18765;BME280;9511;54.242;12.448;2023-04-27T14:18:03;101755.63;;;14.66;40.99
18765;BME280;9511;54.242;12.448;2023-04-27T14:20:32;101750.69;;;14.82;40.98
18765;BME280;9511;54.242;12.448;2023-04-27T14:23:01;101748.38;;;14.27;40.59
18765;BME280;9511;54.242;12.448;2023-04-27T14:25:29;101760.41;;;14.11;40.45
18765;BME280;9511;54.242;12.448;2023-04-27T14:27:59;101763.03;;;14.44;40.64
18765;BME280;9511;54.242;12.448;2023-04-27T14:30:27;101757.88;;;14.49;41.74
18765;BME280;9511;54.242;12.448;2023-04-27T14:32:54;101758.84;;;14.52;40.24
18765;BME280;9511;54.242;12.448;2023-04-27T14:35:22;101760.78;;;13.93;40.18
18765;BME280;9511;54.242;12.448;2023-04-27T14:37:51;101755.13;;;14.82;40.70
18765;BME280;9511;54.242;12.448;2023-04-27T14:40:19;101761.66;;;14.96;41.18
18765;BME280;9511;54.242;12.448;2023-04-27T14:42:47;101764.47;;;15.02;40.66
18765;BME280;9511;54.242;12.448;2023-04-27T14:45:14;101763.84;;;14.75;40.97
18765;BME280;9511;54.242;12.448;2023-04-27T14:47:43;101759.09;;;14.99;41.60
18765;BME280;9511;54.242;12.448;2023-04-27T14:50:10;101755.59;;;14.64;41.45
18765;BME280;9511;54.242;12.448;2023-04-27T14:52:38;101750.50;;;15.12;40.71
18765;BME280;9511;54.242;12.448;2023-04-27T14:55:07;101753.50;;;15.69;41.44
18765;BME280;9511;54.242;12.448;2023-04-27T14:57:35;101758.03;;;15.32;40.90
18765;BME280;9511;54.242;12.448;2023-04-27T15:00:03;101761.28;;;16.03;40.34
18765;BME280;9511;54.242;12.448;2023-04-27T15:02:35;101752.19;;;15.92;40.28
18765;BME280;9511;54.242;12.448;2023-04-27T15:05:04;101754.50;;;14.92;41.31
18765;BME280;9511;54.242;12.448;2023-04-27T15:07:32;101753.00;;;15.46;41.03
18765;BME280;9511;54.242;12.448;2023-04-27T15:09:59;101755.69;;;15.06;40.82
18765;BME280;9511;54.242;12.448;2023-04-27T15:12:28;101752.13;;;15.48;41.13
18765;BME280;9511;54.242;12.448;2023-04-27T15:14:55;101756.09;;;15.25;40.86
18765;BME280;9511;54.242;12.448;2023-04-27T15:17:23;101757.47;;;15.89;40.83
18765;BME280;9511;54.242;12.448;2023-04-27T15:19:50;101756.38;;;15.79;40.77
18765;BME280;9511;54.242;12.448;2023-04-27T15:22:18;101770.38;;;16.13;39.48
18765;BME280;9511;54.242;12.448;2023-04-27T15:24:45;101754.00;;;15.51;39.98
18765;BME280;9511;54.242;12.448;2023-04-27T15:27:13;101748.63;;;15.93;40.12
18765;BME280;9511;54.242;12.448;2023-04-27T15:29:42;101751.19;;;15.43;40.84
18765;BME280;9511;54.242;12.448;2023-04-27T15:32:09;101754.41;;;15.28;40.95
18765;BME280;9511;54.242;12.448;2023-04-27T15:34:36;101760.19;;;15.93;39.90
18765;BME280;9511;54.242;12.448;2023-04-27T15:37:07;101758.50;;;14.40;40.79
18765;BME280;9511;54.242;12.448;2023-04-27T15:39:34;101749.22;;;14.24;42.61
18765;BME280;9511;54.242;12.448;2023-04-27T15:42:03;101766.66;;;14.81;41.89
18765;BME280;9511;54.242;12.448;2023-04-27T15:44:30;101754.09;;;14.75;40.79
18765;BME280;9511;54.242;12.448;2023-04-27T15:46:59;101763.78;;;12.58;43.03
18765;BME280;9511;54.242;12.448;2023-04-27T15:49:26;101760.44;;;12.38;47.15
18765;BME280;9511;54.242;12.448;2023-04-27T15:51:55;101763.16;;;11.65;48.27
18765;BME280;9511;54.242;12.448;2023-04-27T15:54:22;101767.97;;;11.29;49.00
18765;BME280;9511;54.242;12.448;2023-04-27T15:56:49;101765.16;;;11.02;49.55
18765;BME280;9511;54.242;12.448;2023-04-27T15:59:17;101768.66;;;10.57;50.16
18765;BME280;9511;54.242;12.448;2023-04-27T16:01:44;101763.63;;;10.63;50.80
18765;BME280;9511;54.242;12.448;2023-04-27T16:04:13;101769.75;;;10.62;51.73
18765;BME280;9511;54.242;12.448;2023-04-27T16:06:41;101763.53;;;10.40;52.39